sensor_id;sensor_type;location;lat;lon;timestamp;temperature;humidity
26990;DHT22;14537;47.788;11.858;2022-10-31T00:01:36;8.10;99.90
26990;DHT22;14537;47.788;11.858;2022-10-31T00:04:03;8.10;99.90
26990;DHT22;14537;47.788;11.858;2022-10-31T00:06:29;8.10;99.90
26990;DHT22;14537;47.788;11.858;2022-10-31T00:08:57;8.00;99.90
26990;DHT22;14537;47.788;11.858;2022-10-31T00:11:23;8.10;99.90
26990;DHT22;14537;47.788;11.858;2022-10-31T00:13:49;8.00;99.90
26990;DHT22;14537;47.788;11.858;2022-10-31T00:16:20;8.00;99.90
26990;DHT22;14537;47.788;11.858;2022-10-31T00:18:50;8.10;99.90
26990;DHT22;14537;47.788;11.858;2022-10-31T00:21:16;8.00;99.90
26990;DHT22;14537;47.788;11.858;2022-10-31T00:23:41;8.00;99.90
26990;DHT22;14537;47.788;11.858;2022-10-31T00:26:07;8.00;99.90
26990;DHT22;14537;47.788;11.858;2022-10-31T00:28:33;8.00;99.90
26990;DHT22;14537;47.788;11.858;2022-10-31T00:31:07;7.90;99.90
26990;DHT22;14537;47.788;11.858;2022-10-31T00:33:35;7.90;99.90
26990;DHT22;14537;47.788;11.858;2022-10-31T00:36:02;7.90;99.90
26990;DHT22;14537;47.788;11.858;2022-10-31T00:38:28;7.80;99.90
26990;DHT22;14537;47.788;11.858;2022-10-31T00:40:53;7.70;99.90
26990;DHT22;14537;47.788;11.858;2022-10-31T00:43:19;7.70;99.90
26990;DHT22;14537;47.788;11.858;2022-10-31T00:45:45;7.60;99.90
26990;DHT22;14537;47.788;11.858;2022-10-31T00:48:11;7.70;99.90
26990;DHT22;14537;47.788;11.858;2022-10-31T00:50:37;7.70;99.90
26990;DHT22;14537;47.788;11.858;2022-10-31T00:53:03;7.70;99.90
26990;DHT22;14537;47.788;11.858;2022-10-31T00:55:28;7.70;99.90
26990;DHT22;14537;47.788;11.858;2022-10-31T00:57:54;7.70;99.90
26990;DHT22;14537;47.788;11.858;2022-10-31T01:00:20;7.60;99.90
26990;DHT22;14537;47.788;11.858;2022-10-31T01:02:45;7.50;99.90
26990;DHT22;14537;47.788;11.858;2022-10-31T01:05:12;7.50;99.90
26990;DHT22;14537;47.788;11.858;2022-10-31T01:07:39;7.50;99.90
26990;DHT22;14537;47.788;11.858;2022-10-31T01:10:05;7.50;99.90
26990;DHT22;14537;47.788;11.858;2022-10-31T01:12:44;7.40;99.90
26990;DHT22;14537;47.788;11.858;2022-10-31T01:15:11;7.40;99.90
26990;DHT22;14537;47.788;11.858;2022-10-31T01:17:38;7.40;99.90
26990;DHT22;14537;47.788;11.858;2022-10-31T01:20:04;7.50;99.90
26990;DHT22;14537;47.788;11.858;2022-10-31T01:22:30;7.40;99.90
26990;DHT22;14537;47.788;11.858;2022-10-31T01:24:56;7.40;99.90
26990;DHT22;14537;47.788;11.858;2022-10-31T01:27:21;7.40;99.90
26990;DHT22;14537;47.788;11.858;2022-10-31T01:29:47;7.30;99.90
26990;DHT22;14537;47.788;11.858;2022-10-31T01:32:13;7.20;99.90
26990;DHT22;14537;47.788;11.858;2022-10-31T01:34:38;7.10;99.90
26990;DHT22;14537;47.788;11.858;2022-10-31T01:37:04;7.20;99.90
26990;DHT22;14537;47.788;11.858;2022-10-31T01:39:30;7.30;99.90
26990;DHT22;14537;47.788;11.858;2022-10-31T01:41:55;7.30;99.90
26990;DHT22;14537;47.788;11.858;2022-10-31T01:47:07;7.30;99.90
26990;DHT22;14537;47.788;11.858;2022-10-31T01:49:47;7.30;99.90
26990;DHT22;14537;47.788;11.858;2022-10-31T01:52:21;7.10;99.90
26990;DHT22;14537;47.788;11.858;2022-10-31T01:55:37;7.10;99.90
26990;DHT22;14537;47.788;11.858;2022-10-31T01:57:48;7.10;99.90
26990;DHT22;14537;47.788;11.858;2022-10-31T02:00:15;7.10;99.90
26990;DHT22;14537;47.788;11.858;2022-10-31T02:02:42;7.10;99.90
26990;DHT22;14537;47.788;11.858;2022-10-31T02:05:10;7.20;99.90
26990;DHT22;14537;47.788;11.858;2022-10-31T02:07:46;7.30;99.90
26990;DHT22;14537;47.788;11.858;2022-10-31T02:10:14;7.50;99.90
26990;DHT22;14537;47.788;11.858;2022-10-31T02:12:40;7.60;99.90
26990;DHT22;14537;47.788;11.858;2022-10-31T02:15:07;7.60;99.90
26990;DHT22;14537;47.788;11.858;2022-10-31T02:17:34;7.50;99.90
26990;DHT22;14537;47.788;11.858;2022-10-31T02:20:22;7.40;99.90
26990;DHT22;14537;47.788;11.858;2022-10-31T02:23:15;7.40;99.90
26990;DHT22;14537;47.788;11.858;2022-10-31T02:39:34;7.50;99.90
26990;DHT22;14537;47.788;11.858;2022-10-31T02:42:16;7.40;99.90
26990;DHT22;14537;47.788;11.858;2022-10-31T02:47:34;7.10;99.90
26990;DHT22;14537;47.788;11.858;2022-10-31T02:50:22;7.20;99.90
26990;DHT22;14537;47.788;11.858;2022-10-31T02:52:53;7.20;99.90
26990;DHT22;14537;47.788;11.858;2022-10-31T02:57:57;7.30;99.90
26990;DHT22;14537;47.788;11.858;2022-10-31T03:00:24;7.30;99.90
26990;DHT22;14537;47.788;11.858;2022-10-31T03:05:32;7.30;99.90
26990;DHT22;14537;47.788;11.858;2022-10-31T03:08:35;7.40;99.90
26990;DHT22;14537;47.788;11.858;2022-10-31T03:11:08;7.50;99.90
26990;DHT22;14537;47.788;11.858;2022-10-31T03:16:49;7.40;99.90
26990;DHT22;14537;47.788;11.858;2022-10-31T03:21:58;7.40;99.90
26990;DHT22;14537;47.788;11.858;2022-10-31T03:24:31;7.40;99.90
26990;DHT22;14537;47.788;11.858;2022-10-31T03:26:59;7.40;99.90
26990;DHT22;14537;47.788;11.858;2022-10-31T03:29:28;7.40;99.90
26990;DHT22;14537;47.788;11.858;2022-10-31T03:32:03;7.50;99.90
26990;DHT22;14537;47.788;11.858;2022-10-31T03:34:30;7.50;99.90
26990;DHT22;14537;47.788;11.858;2022-10-31T03:36:59;7.50;99.90
26990;DHT22;14537;47.788;11.858;2022-10-31T03:39:27;7.50;99.90
26990;DHT22;14537;47.788;11.858;2022-10-31T03:42:04;7.50;99.90
26990;DHT22;14537;47.788;11.858;2022-10-31T03:44:31;7.50;99.90
26990;DHT22;14537;47.788;11.858;2022-10-31T03:46:57;7.40;99.90
26990;DHT22;14537;47.788;11.858;2022-10-31T03:49:23;7.40;99.90
26990;DHT22;14537;47.788;11.858;2022-10-31T03:54:44;7.40;99.90
26990;DHT22;14537;47.788;11.858;2022-10-31T04:00:00;7.20;99.90
26990;DHT22;14537;47.788;11.858;2022-10-31T04:02:30;7.20;99.90
26990;DHT22;14537;47.788;11.858;2022-10-31T04:04:58;7.10;99.90
26990;DHT22;14537;47.788;11.858;2022-10-31T04:07:28;7.00;99.90
26990;DHT22;14537;47.788;11.858;2022-10-31T04:09:56;6.90;99.90
26990;DHT22;14537;47.788;11.858;2022-10-31T04:12:24;6.80;99.90
26990;DHT22;14537;47.788;11.858;2022-10-31T04:14:50;6.80;99.90
26990;DHT22;14537;47.788;11.858;2022-10-31T04:17:19;6.70;99.90
26990;DHT22;14537;47.788;11.858;2022-10-31T04:19:47;6.70;99.90
26990;DHT22;14537;47.788;11.858;2022-10-31T04:22:12;6.80;99.90
26990;DHT22;14537;47.788;11.858;2022-10-31T04:24:40;6.80;99.90
26990;DHT22;14537;47.788;11.858;2022-10-31T04:27:06;6.80;99.90
26990;DHT22;14537;47.788;11.858;2022-10-31T04:29:31;6.70;99.90
26990;DHT22;14537;47.788;11.858;2022-10-31T04:31:57;6.60;99.90
26990;DHT22;14537;47.788;11.858;2022-10-31T04:34:23;6.60;99.90
26990;DHT22;14537;47.788;11.858;2022-10-31T04:36:48;6.60;99.90
26990;DHT22;14537;47.788;11.858;2022-10-31T04:39:14;6.60;99.90
26990;DHT22;14537;47.788;11.858;2022-10-31T04:41:40;6.60;99.90
26990;DHT22;14537;47.788;11.858;2022-10-31T04:44:05;6.60;99.90
26990;DHT22;14537;47.788;11.858;2022-10-31T04:46:31;6.50;99.90
26990;DHT22;14537;47.788;11.858;2022-10-31T04:48:57;6.60;99.90
26990;DHT22;14537;47.788;11.858;2022-10-31T04:51:22;6.50;99.90
26990;DHT22;14537;47.788;11.858;2022-10-31T04:53:48;6.60;99.90
26990;DHT22;14537;47.788;11.858;2022-10-31T04:56:14;6.80;99.90
26990;DHT22;14537;47.788;11.858;2022-10-31T04:58:39;6.80;99.90
26990;DHT22;14537;47.788;11.858;2022-10-31T05:01:05;6.80;99.90
26990;DHT22;14537;47.788;11.858;2022-10-31T05:03:31;6.70;99.90
26990;DHT22;14537;47.788;11.858;2022-10-31T05:05:56;6.80;99.90
26990;DHT22;14537;47.788;11.858;2022-10-31T05:08:22;6.70;99.90
26990;DHT22;14537;47.788;11.858;2022-10-31T05:10:47;6.70;99.90
26990;DHT22;14537;47.788;11.858;2022-10-31T05:13:13;6.60;99.90
26990;DHT22;14537;47.788;11.858;2022-10-31T05:15:40;6.60;99.90
26990;DHT22;14537;47.788;11.858;2022-10-31T05:18:05;6.60;99.90
26990;DHT22;14537;47.788;11.858;2022-10-31T05:20:31;6.60;99.90
26990;DHT22;14537;47.788;11.858;2022-10-31T05:22:58;6.50;99.90
26990;DHT22;14537;47.788;11.858;2022-10-31T05:25:26;6.50;99.90
26990;DHT22;14537;47.788;11.858;2022-10-31T05:27:53;6.50;99.90
26990;DHT22;14537;47.788;11.858;2022-10-31T05:30:22;6.50;99.90
26990;DHT22;14537;47.788;11.858;2022-10-31T05:32:49;6.40;99.90
26990;DHT22;14537;47.788;11.858;2022-10-31T05:35:17;6.30;99.90
26990;DHT22;14537;47.788;11.858;2022-10-31T05:37:43;6.30;99.90
26990;DHT22;14537;47.788;11.858;2022-10-31T05:40:11;6.30;99.90
26990;DHT22;14537;47.788;11.858;2022-10-31T05:42:38;6.30;99.90
26990;DHT22;14537;47.788;11.858;2022-10-31T05:45:05;6.30;99.90
26990;DHT22;14537;47.788;11.858;2022-10-31T05:47:31;6.30;99.90
26990;DHT22;14537;47.788;11.858;2022-10-31T05:49:57;6.30;99.90
26990;DHT22;14537;47.788;11.858;2022-10-31T05:52:23;6.30;99.90
26990;DHT22;14537;47.788;11.858;2022-10-31T05:54:48;6.20;99.90
26990;DHT22;14537;47.788;11.858;2022-10-31T05:57:14;6.20;99.90
26990;DHT22;14537;47.788;11.858;2022-10-31T05:59:39;6.00;99.90
26990;DHT22;14537;47.788;11.858;2022-10-31T06:02:05;6.00;99.90
26990;DHT22;14537;47.788;11.858;2022-10-31T06:04:31;6.00;99.90
26990;DHT22;14537;47.788;11.858;2022-10-31T06:06:56;6.00;99.90
26990;DHT22;14537;47.788;11.858;2022-10-31T06:09:22;6.10;99.90
26990;DHT22;14537;47.788;11.858;2022-10-31T06:11:48;6.10;99.90
26990;DHT22;14537;47.788;11.858;2022-10-31T06:14:14;6.10;99.90
26990;DHT22;14537;47.788;11.858;2022-10-31T06:16:39;6.20;99.90
26990;DHT22;14537;47.788;11.858;2022-10-31T06:19:05;6.20;99.90
26990;DHT22;14537;47.788;11.858;2022-10-31T06:21:31;6.20;99.90
26990;DHT22;14537;47.788;11.858;2022-10-31T06:23:56;6.30;99.90
26990;DHT22;14537;47.788;11.858;2022-10-31T06:26:22;6.40;99.90
26990;DHT22;14537;47.788;11.858;2022-10-31T06:28:48;6.40;99.90
26990;DHT22;14537;47.788;11.858;2022-10-31T06:31:13;6.50;99.90
26990;DHT22;14537;47.788;11.858;2022-10-31T06:33:41;6.60;99.90
26990;DHT22;14537;47.788;11.858;2022-10-31T06:36:08;6.60;99.90
26990;DHT22;14537;47.788;11.858;2022-10-31T06:38:33;6.60;99.90
26990;DHT22;14537;47.788;11.858;2022-10-31T06:41:03;6.60;99.90
26990;DHT22;14537;47.788;11.858;2022-10-31T06:43:29;6.60;99.90
26990;DHT22;14537;47.788;11.858;2022-10-31T06:45:55;6.70;99.90
26990;DHT22;14537;47.788;11.858;2022-10-31T06:48:20;6.80;99.90
26990;DHT22;14537;47.788;11.858;2022-10-31T06:50:46;6.80;99.90
26990;DHT22;14537;47.788;11.858;2022-10-31T06:53:12;6.80;99.90
26990;DHT22;14537;47.788;11.858;2022-10-31T06:55:39;6.80;99.90
26990;DHT22;14537;47.788;11.858;2022-10-31T06:58:05;6.80;99.90
26990;DHT22;14537;47.788;11.858;2022-10-31T07:00:31;6.90;99.90
26990;DHT22;14537;47.788;11.858;2022-10-31T07:03:01;6.90;99.90
26990;DHT22;14537;47.788;11.858;2022-10-31T07:05:27;7.00;99.90
26990;DHT22;14537;47.788;11.858;2022-10-31T07:07:54;7.00;99.90
26990;DHT22;14537;47.788;11.858;2022-10-31T07:10:20;7.00;99.90
26990;DHT22;14537;47.788;11.858;2022-10-31T07:12:46;7.00;99.90
26990;DHT22;14537;47.788;11.858;2022-10-31T07:15:12;7.10;99.90
26990;DHT22;14537;47.788;11.858;2022-10-31T07:17:37;7.20;99.90
26990;DHT22;14537;47.788;11.858;2022-10-31T07:20:03;7.20;99.90
26990;DHT22;14537;47.788;11.858;2022-10-31T07:22:33;7.30;99.90
26990;DHT22;14537;47.788;11.858;2022-10-31T07:24:59;7.30;99.90
26990;DHT22;14537;47.788;11.858;2022-10-31T07:27:25;7.40;99.90
26990;DHT22;14537;47.788;11.858;2022-10-31T07:29:50;7.40;99.90
26990;DHT22;14537;47.788;11.858;2022-10-31T07:32:16;7.60;99.90
26990;DHT22;14537;47.788;11.858;2022-10-31T07:34:41;7.80;99.90
26990;DHT22;14537;47.788;11.858;2022-10-31T07:37:07;7.80;99.90
26990;DHT22;14537;47.788;11.858;2022-10-31T07:39:33;7.90;99.90
26990;DHT22;14537;47.788;11.858;2022-10-31T07:41:59;7.90;99.90
26990;DHT22;14537;47.788;11.858;2022-10-31T07:44:24;8.00;99.90
26990;DHT22;14537;47.788;11.858;2022-10-31T07:46:50;8.10;99.90
26990;DHT22;14537;47.788;11.858;2022-10-31T07:49:16;8.20;99.90
26990;DHT22;14537;47.788;11.858;2022-10-31T07:51:41;8.30;99.90
26990;DHT22;14537;47.788;11.858;2022-10-31T07:54:07;8.30;99.90
26990;DHT22;14537;47.788;11.858;2022-10-31T07:56:33;8.40;99.90
26990;DHT22;14537;47.788;11.858;2022-10-31T07:58:58;8.40;99.90
26990;DHT22;14537;47.788;11.858;2022-10-31T08:01:24;8.50;99.90
26990;DHT22;14537;47.788;11.858;2022-10-31T08:03:49;8.60;99.90
26990;DHT22;14537;47.788;11.858;2022-10-31T08:06:15;8.80;99.90
26990;DHT22;14537;47.788;11.858;2022-10-31T08:08:41;8.80;99.90
26990;DHT22;14537;47.788;11.858;2022-10-31T08:11:06;8.90;99.90
26990;DHT22;14537;47.788;11.858;2022-10-31T08:13:32;9.00;99.90
26990;DHT22;14537;47.788;11.858;2022-10-31T08:15:58;9.00;99.90
26990;DHT22;14537;47.788;11.858;2022-10-31T08:18:29;9.00;99.90
26990;DHT22;14537;47.788;11.858;2022-10-31T08:20:55;9.10;99.90
26990;DHT22;14537;47.788;11.858;2022-10-31T08:23:21;9.20;99.90
26990;DHT22;14537;47.788;11.858;2022-10-31T08:25:46;9.30;99.90
26990;DHT22;14537;47.788;11.858;2022-10-31T08:28:13;9.40;99.90
26990;DHT22;14537;47.788;11.858;2022-10-31T08:30:40;9.40;99.90
26990;DHT22;14537;47.788;11.858;2022-10-31T08:33:10;9.50;99.90
26990;DHT22;14537;47.788;11.858;2022-10-31T08:35:35;9.50;99.90
26990;DHT22;14537;47.788;11.858;2022-10-31T08:38:01;9.60;99.90
26990;DHT22;14537;47.788;11.858;2022-10-31T08:40:29;9.60;99.90
26990;DHT22;14537;47.788;11.858;2022-10-31T08:42:59;9.70;99.90
26990;DHT22;14537;47.788;11.858;2022-10-31T08:45:26;9.70;99.90
26990;DHT22;14537;47.788;11.858;2022-10-31T08:47:51;9.80;99.90
26990;DHT22;14537;47.788;11.858;2022-10-31T08:50:18;9.90;99.90
26990;DHT22;14537;47.788;11.858;2022-10-31T08:52:43;10.10;99.90
26990;DHT22;14537;47.788;11.858;2022-10-31T08:55:09;10.20;99.90
26990;DHT22;14537;47.788;11.858;2022-10-31T08:57:35;10.20;99.90
26990;DHT22;14537;47.788;11.858;2022-10-31T09:00:00;10.40;99.90
26990;DHT22;14537;47.788;11.858;2022-10-31T09:02:26;10.40;99.90
26990;DHT22;14537;47.788;11.858;2022-10-31T09:04:52;10.40;99.90
26990;DHT22;14537;47.788;11.858;2022-10-31T09:07:17;10.70;99.90
26990;DHT22;14537;47.788;11.858;2022-10-31T09:09:43;10.80;99.90
26990;DHT22;14537;47.788;11.858;2022-10-31T09:12:08;10.90;99.90
26990;DHT22;14537;47.788;11.858;2022-10-31T09:14:34;11.00;99.90
26990;DHT22;14537;47.788;11.858;2022-10-31T09:17:00;11.00;99.90
26990;DHT22;14537;47.788;11.858;2022-10-31T09:19:25;11.10;99.90
26990;DHT22;14537;47.788;11.858;2022-10-31T09:21:54;11.20;99.90
26990;DHT22;14537;47.788;11.858;2022-10-31T09:24:20;11.30;99.90
26990;DHT22;14537;47.788;11.858;2022-10-31T09:26:45;11.30;99.90
26990;DHT22;14537;47.788;11.858;2022-10-31T09:29:11;11.50;99.90
26990;DHT22;14537;47.788;11.858;2022-10-31T09:31:37;11.70;99.90
26990;DHT22;14537;47.788;11.858;2022-10-31T09:34:03;11.80;99.90
26990;DHT22;14537;47.788;11.858;2022-10-31T09:36:29;11.90;99.90
26990;DHT22;14537;47.788;11.858;2022-10-31T09:38:54;12.00;99.90
26990;DHT22;14537;47.788;11.858;2022-10-31T09:50:23;12.70;99.90
26990;DHT22;14537;47.788;11.858;2022-10-31T09:53:01;12.70;99.90
26990;DHT22;14537;47.788;11.858;2022-10-31T09:55:36;12.90;99.90
26990;DHT22;14537;47.788;11.858;2022-10-31T09:58:03;12.90;99.90
26990;DHT22;14537;47.788;11.858;2022-10-31T10:00:29;13.00;99.90
26990;DHT22;14537;47.788;11.858;2022-10-31T10:05:46;13.20;99.90
26990;DHT22;14537;47.788;11.858;2022-10-31T10:08:23;13.40;99.90
26990;DHT22;14537;47.788;11.858;2022-10-31T10:16:38;13.90;99.90
26990;DHT22;14537;47.788;11.858;2022-10-31T10:29:50;14.50;99.90
26990;DHT22;14537;47.788;11.858;2022-10-31T10:32:29;14.60;99.90
26990;DHT22;14537;47.788;11.858;2022-10-31T10:35:10;14.80;99.90
26990;DHT22;14537;47.788;11.858;2022-10-31T10:37:41;15.00;99.90
26990;DHT22;14537;47.788;11.858;2022-10-31T10:40:15;15.10;99.90
26990;DHT22;14537;47.788;11.858;2022-10-31T10:42:45;15.20;99.90
26990;DHT22;14537;47.788;11.858;2022-10-31T10:45:34;15.50;99.90
26990;DHT22;14537;47.788;11.858;2022-10-31T10:51:04;15.60;99.90
26990;DHT22;14537;47.788;11.858;2022-10-31T10:59:13;15.60;99.90
26990;DHT22;14537;47.788;11.858;2022-10-31T11:01:40;15.50;99.90
26990;DHT22;14537;47.788;11.858;2022-10-31T11:07:20;15.60;99.90
26990;DHT22;14537;47.788;11.858;2022-10-31T11:09:46;15.70;99.90
26990;DHT22;14537;47.788;11.858;2022-10-31T11:12:24;15.60;99.90
26990;DHT22;14537;47.788;11.858;2022-10-31T11:15:07;15.60;99.90
26990;DHT22;14537;47.788;11.858;2022-10-31T11:17:36;15.70;99.90
26990;DHT22;14537;47.788;11.858;2022-10-31T11:20:24;15.60;99.90
26990;DHT22;14537;47.788;11.858;2022-10-31T11:23:19;15.60;99.90
26990;DHT22;14537;47.788;11.858;2022-10-31T11:25:54;15.70;99.90
26990;DHT22;14537;47.788;11.858;2022-10-31T11:28:20;15.80;99.90
26990;DHT22;14537;47.788;11.858;2022-10-31T11:30:54;15.90;99.90
26990;DHT22;14537;47.788;11.858;2022-10-31T11:33:34;15.90;99.90
26990;DHT22;14537;47.788;11.858;2022-10-31T11:36:02;15.90;99.90
26990;DHT22;14537;47.788;11.858;2022-10-31T11:38:43;16.00;99.90
26990;DHT22;14537;47.788;11.858;2022-10-31T11:43:34;16.00;99.90
26990;DHT22;14537;47.788;11.858;2022-10-31T11:46:11;16.00;99.90
26990;DHT22;14537;47.788;11.858;2022-10-31T11:48:51;16.00;99.90
26990;DHT22;14537;47.788;11.858;2022-10-31T11:51:25;16.00;99.90
26990;DHT22;14537;47.788;11.858;2022-10-31T11:53:54;16.10;99.90
26990;DHT22;14537;47.788;11.858;2022-10-31T11:56:20;16.10;99.90
26990;DHT22;14537;47.788;11.858;2022-10-31T11:59:04;16.10;99.90
26990;DHT22;14537;47.788;11.858;2022-10-31T12:01:31;16.10;99.90
26990;DHT22;14537;47.788;11.858;2022-10-31T12:04:10;16.20;99.90
26990;DHT22;14537;47.788;11.858;2022-10-31T12:06:37;16.10;99.90
26990;DHT22;14537;47.788;11.858;2022-10-31T12:09:24;16.10;99.90
26990;DHT22;14537;47.788;11.858;2022-10-31T12:17:04;16.20;99.90
26990;DHT22;14537;47.788;11.858;2022-10-31T12:19:50;16.10;99.90
26990;DHT22;14537;47.788;11.858;2022-10-31T12:33:23;16.10;99.90
26990;DHT22;14537;47.788;11.858;2022-10-31T12:41:56;16.20;99.90
26990;DHT22;14537;47.788;11.858;2022-10-31T12:49:50;16.30;99.90
26990;DHT22;14537;47.788;11.858;2022-10-31T12:54:52;16.20;99.90
26990;DHT22;14537;47.788;11.858;2022-10-31T12:57:27;16.20;99.90
26990;DHT22;14537;47.788;11.858;2022-10-31T13:00:07;16.20;99.90
26990;DHT22;14537;47.788;11.858;2022-10-31T13:08:16;16.20;99.90
26990;DHT22;14537;47.788;11.858;2022-10-31T13:10:55;16.20;99.90
26990;DHT22;14537;47.788;11.858;2022-10-31T13:16:16;16.20;99.90
26990;DHT22;14537;47.788;11.858;2022-10-31T13:18:57;16.20;99.90
26990;DHT22;14537;47.788;11.858;2022-10-31T13:38:03;16.70;99.90
26990;DHT22;14537;47.788;11.858;2022-10-31T13:41:10;16.80;99.90
26990;DHT22;14537;47.788;11.858;2022-10-31T13:46:20;17.00;99.90
26990;DHT22;14537;47.788;11.858;2022-10-31T13:48:47;17.00;99.90
26990;DHT22;14537;47.788;11.858;2022-10-31T13:51:12;17.10;99.90
26990;DHT22;14537;47.788;11.858;2022-10-31T13:56:22;17.30;99.90
26990;DHT22;14537;47.788;11.858;2022-10-31T14:01:36;17.30;99.90
26990;DHT22;14537;47.788;11.858;2022-10-31T14:04:06;17.30;99.90
26990;DHT22;14537;47.788;11.858;2022-10-31T14:09:29;17.20;99.90
26990;DHT22;14537;47.788;11.858;2022-10-31T14:11:59;17.10;99.90
26990;DHT22;14537;47.788;11.858;2022-10-31T14:14:31;17.00;99.90
26990;DHT22;14537;47.788;11.858;2022-10-31T14:16:58;17.10;99.90
26990;DHT22;14537;47.788;11.858;2022-10-31T14:19:24;17.10;99.90
26990;DHT22;14537;47.788;11.858;2022-10-31T14:21:51;17.20;99.90
26990;DHT22;14537;47.788;11.858;2022-10-31T14:27:04;17.30;99.90
26990;DHT22;14537;47.788;11.858;2022-10-31T14:29:31;17.40;99.90
26990;DHT22;14537;47.788;11.858;2022-10-31T14:32:13;17.40;99.90
26990;DHT22;14537;47.788;11.858;2022-10-31T14:34:42;17.40;99.90
26990;DHT22;14537;47.788;11.858;2022-10-31T14:37:18;17.40;99.90
26990;DHT22;14537;47.788;11.858;2022-10-31T14:39:52;17.40;99.90
26990;DHT22;14537;47.788;11.858;2022-10-31T14:48:21;17.40;99.90
26990;DHT22;14537;47.788;11.858;2022-10-31T14:50:54;17.30;99.90
26990;DHT22;14537;47.788;11.858;2022-10-31T14:53:29;17.30;99.90
26990;DHT22;14537;47.788;11.858;2022-10-31T14:55:57;17.20;99.90
26990;DHT22;14537;47.788;11.858;2022-10-31T15:00:59;17.00;99.90
26990;DHT22;14537;47.788;11.858;2022-10-31T15:03:30;16.90;99.90
26990;DHT22;14537;47.788;11.858;2022-10-31T15:06:00;16.90;99.90
26990;DHT22;14537;47.788;11.858;2022-10-31T15:08:34;16.80;99.90
26990;DHT22;14537;47.788;11.858;2022-10-31T15:11:36;16.60;99.90
26990;DHT22;14537;47.788;11.858;2022-10-31T15:14:17;16.50;99.90
26990;DHT22;14537;47.788;11.858;2022-10-31T15:16:46;16.40;99.90
26990;DHT22;14537;47.788;11.858;2022-10-31T15:19:16;16.20;99.90
26990;DHT22;14537;47.788;11.858;2022-10-31T15:21:44;16.10;99.90
26990;DHT22;14537;47.788;11.858;2022-10-31T15:24:13;15.90;99.90
26990;DHT22;14537;47.788;11.858;2022-10-31T15:26:53;15.80;99.90
26990;DHT22;14537;47.788;11.858;2022-10-31T15:29:21;15.70;99.90
26990;DHT22;14537;47.788;11.858;2022-10-31T15:32:15;15.60;99.90
26990;DHT22;14537;47.788;11.858;2022-10-31T15:34:43;15.50;99.90
26990;DHT22;14537;47.788;11.858;2022-10-31T15:37:11;15.40;99.90
26990;DHT22;14537;47.788;11.858;2022-10-31T15:39:37;15.30;99.90
26990;DHT22;14537;47.788;11.858;2022-10-31T15:42:03;15.30;99.90
26990;DHT22;14537;47.788;11.858;2022-10-31T15:44:35;15.10;99.90
26990;DHT22;14537;47.788;11.858;2022-10-31T15:47:03;15.00;99.90
26990;DHT22;14537;47.788;11.858;2022-10-31T15:52:37;14.70;99.90
26990;DHT22;14537;47.788;11.858;2022-10-31T15:55:14;14.60;99.90
26990;DHT22;14537;47.788;11.858;2022-10-31T15:57:46;14.40;99.90
26990;DHT22;14537;47.788;11.858;2022-10-31T16:00:24;14.40;99.90
26990;DHT22;14537;47.788;11.858;2022-10-31T16:02:49;14.20;99.90
26990;DHT22;14537;47.788;11.858;2022-10-31T16:05:18;14.10;99.90
26990;DHT22;14537;47.788;11.858;2022-10-31T16:07:51;14.00;99.90
26990;DHT22;14537;47.788;11.858;2022-10-31T16:10:25;13.80;99.90
26990;DHT22;14537;47.788;11.858;2022-10-31T16:12:51;13.70;99.90
26990;DHT22;14537;47.788;11.858;2022-10-31T16:15:19;13.60;99.90
26990;DHT22;14537;47.788;11.858;2022-10-31T16:17:48;13.40;99.90
26990;DHT22;14537;47.788;11.858;2022-10-31T16:20:26;13.20;99.90
26990;DHT22;14537;47.788;11.858;2022-10-31T16:22:54;13.00;99.90
26990;DHT22;14537;47.788;11.858;2022-10-31T16:25:29;12.90;99.90
26990;DHT22;14537;47.788;11.858;2022-10-31T16:28:12;12.90;99.90
26990;DHT22;14537;47.788;11.858;2022-10-31T16:30:40;12.70;99.90
26990;DHT22;14537;47.788;11.858;2022-10-31T16:33:30;12.60;99.90
26990;DHT22;14537;47.788;11.858;2022-10-31T16:35:59;12.50;99.90
26990;DHT22;14537;47.788;11.858;2022-10-31T16:38:27;12.50;99.90
26990;DHT22;14537;47.788;11.858;2022-10-31T16:40:53;12.30;99.90
26990;DHT22;14537;47.788;11.858;2022-10-31T16:43:20;12.20;99.90
26990;DHT22;14537;47.788;11.858;2022-10-31T16:45:51;12.20;99.90
26990;DHT22;14537;47.788;11.858;2022-10-31T16:48:20;12.10;99.90
26990;DHT22;14537;47.788;11.858;2022-10-31T16:50:48;11.90;99.90
26990;DHT22;14537;47.788;11.858;2022-10-31T16:53:15;11.70;99.90
26990;DHT22;14537;47.788;11.858;2022-10-31T16:55:47;11.60;99.90
26990;DHT22;14537;47.788;11.858;2022-10-31T16:58:21;11.60;99.90
26990;DHT22;14537;47.788;11.858;2022-10-31T17:00:48;11.50;99.90
26990;DHT22;14537;47.788;11.858;2022-10-31T17:03:14;11.50;99.90
26990;DHT22;14537;47.788;11.858;2022-10-31T17:05:39;11.40;99.90
26990;DHT22;14537;47.788;11.858;2022-10-31T17:08:05;11.40;99.90
26990;DHT22;14537;47.788;11.858;2022-10-31T17:10:31;11.30;99.90
26990;DHT22;14537;47.788;11.858;2022-10-31T17:12:57;11.30;99.90
26990;DHT22;14537;47.788;11.858;2022-10-31T17:15:26;11.00;99.90
26990;DHT22;14537;47.788;11.858;2022-10-31T17:17:53;10.70;99.90
26990;DHT22;14537;47.788;11.858;2022-10-31T17:20:27;10.60;99.90
26990;DHT22;14537;47.788;11.858;2022-10-31T17:22:53;10.70;99.90
26990;DHT22;14537;47.788;11.858;2022-10-31T17:25:21;10.70;99.90
26990;DHT22;14537;47.788;11.858;2022-10-31T17:27:48;10.70;99.90
26990;DHT22;14537;47.788;11.858;2022-10-31T17:30:15;10.60;99.90
26990;DHT22;14537;47.788;11.858;2022-10-31T17:32:43;10.70;99.90
26990;DHT22;14537;47.788;11.858;2022-10-31T17:35:10;10.70;99.90
26990;DHT22;14537;47.788;11.858;2022-10-31T17:37:37;10.60;99.90
26990;DHT22;14537;47.788;11.858;2022-10-31T17:40:03;10.50;99.90
26990;DHT22;14537;47.788;11.858;2022-10-31T17:42:29;10.40;99.90
26990;DHT22;14537;47.788;11.858;2022-10-31T17:44:55;10.40;99.90
26990;DHT22;14537;47.788;11.858;2022-10-31T17:47:20;10.40;99.90
26990;DHT22;14537;47.788;11.858;2022-10-31T17:49:46;10.40;99.90
26990;DHT22;14537;47.788;11.858;2022-10-31T17:52:12;10.30;99.90
26990;DHT22;14537;47.788;11.858;2022-10-31T17:54:37;10.20;99.90
26990;DHT22;14537;47.788;11.858;2022-10-31T17:57:03;10.20;99.90
26990;DHT22;14537;47.788;11.858;2022-10-31T17:59:29;10.20;99.90
26990;DHT22;14537;47.788;11.858;2022-10-31T18:01:56;10.10;99.90
26990;DHT22;14537;47.788;11.858;2022-10-31T18:04:21;10.00;99.90
26990;DHT22;14537;47.788;11.858;2022-10-31T18:06:47;9.90;99.90
26990;DHT22;14537;47.788;11.858;2022-10-31T18:09:14;9.90;99.90
26990;DHT22;14537;47.788;11.858;2022-10-31T18:11:40;9.90;99.90
26990;DHT22;14537;47.788;11.858;2022-10-31T18:14:07;10.00;99.90
26990;DHT22;14537;47.788;11.858;2022-10-31T18:16:33;10.10;99.90